Time;durP1;ratioP1;P1;durP2;ratioP2;P2;SDS_P1;SDS_P2;PMS_P1;PMS_P2;Temp;Humidity;BMP_temperature;BMP_pressure;BME280_temperature;BME280_humidity;BME280_pressure;Samples;Min_cycle;Max_cycle;Signal;HPM_P1;HPM_P2
2021/11/11 00:02:25;;;;;;;67.43;34.80;;;;;;;;;;4403230;32;20253;-54
2021/11/11 00:04:50;;;;;;;64.27;30.33;;;;;;;;;;4403138;32;20407;-54
2021/11/11 00:07:16;;;;;;;70.50;31.90;;;;;;;;;;4401256;32;20382;-55
2021/11/11 00:09:42;;;;;;;75.40;35.87;;;;;;;;;;4402768;32;20311;-55
2021/11/11 00:12:08;;;;;;;67.93;34.87;;;;;;;;;;4401484;32;20825;-54
2021/11/11 00:14:34;;;;;;;72.47;33.07;;;;;;;;;;4402755;32;20364;-54
2021/11/11 00:16:59;;;;;;;75.57;31.70;;;;;;;;;;4402462;32;20253;-54
2021/11/11 00:19:25;;;;;;;70.87;34.73;;;;;;;;;;4402628;32;20292;-55
2021/11/11 00:21:50;;;;;;;78.97;35.60;;;;;;;;;;4402872;32;20567;-55
2021/11/11 00:24:16;;;;;;;66.10;28.97;;;;;;;;;;4399825;32;20316;-54
2021/11/11 00:26:42;;;;;;;69.10;30.50;;;;;;;;;;4385408;32;20277;-55
2021/11/11 00:29:08;;;;;;;58.97;27.80;;;;;;;;;;4387217;32;20280;-54
2021/11/11 00:31:33;;;;;;;68.57;30.50;;;;;;;;;;4387550;32;20779;-53
2021/11/11 00:33:59;;;;;;;59.13;28.73;;;;;;;;;;4387968;32;20733;-54
2021/11/11 00:36:24;;;;;;;55.70;26.17;;;;;;;;;;4387057;32;20296;-54
2021/11/11 00:38:50;;;;;;;56.07;26.03;;;;;;;;;;4387807;32;20781;-54
2021/11/11 00:41:15;;;;;;;50.77;23.80;;;;;;;;;;4387271;32;20621;-54
2021/11/11 00:43:41;;;;;;;33.50;22.47;;;;;;;;;;4394104;32;20284;-54
2021/11/11 00:46:07;;;;;;;54.53;21.90;;;;;;;;;;4401824;32;20218;-54
2021/11/11 00:48:33;;;;;;;46.07;22.63;;;;;;;;;;4401269;32;20316;-55
2021/11/11 00:50:59;;;;;;;58.67;28.77;;;;;;;;;;4402909;32;20221;-55
2021/11/11 00:53:25;;;;;;;53.97;28.30;;;;;;;;;;4401870;32;20281;-54
2021/11/11 00:55:51;;;;;;;58.83;30.03;;;;;;;;;;4402681;32;20268;-54
2021/11/11 00:58:16;;;;;;;54.10;28.10;;;;;;;;;;4402439;32;20406;-55
2021/11/11 01:00:42;;;;;;;48.87;26.73;;;;;;;;;;4402642;32;20327;-55
2021/11/11 01:03:09;;;;;;;50.80;28.03;;;;;;;;;;4402530;32;20344;-55
2021/11/11 01:05:35;;;;;;;51.70;26.47;;;;;;;;;;4402519;32;20284;-55
2021/11/11 01:08:01;;;;;;;48.60;27.27;;;;;;;;;;4402306;32;20221;-54
2021/11/11 01:10:27;;;;;;;46.50;24.80;;;;;;;;;;4402646;32;20320;-56
2021/11/11 01:12:53;;;;;;;40.30;22.90;;;;;;;;;;4402060;32;20649;-54
2021/11/11 01:15:23;;;;;;;38.80;23.23;;;;;;;;;;4402366;32;20295;-55
2021/11/11 01:17:49;;;;;;;49.63;24.50;;;;;;;;;;4402479;32;20249;-55
2021/11/11 01:20:15;;;;;;;53.90;26.33;;;;;;;;;;4400771;32;20778;-55
2021/11/11 01:22:43;;;;;;;48.70;23.40;;;;;;;;;;4401025;32;20234;-55
2021/11/11 01:25:13;;;;;;;44.43;25.77;;;;;;;;;;4400414;32;20264;-54
2021/11/11 01:27:40;;;;;;;42.53;26.07;;;;;;;;;;4401996;32;20348;-55
2021/11/11 01:30:06;;;;;;;61.23;28.63;;;;;;;;;;4402361;32;20650;-54
2021/11/11 01:32:31;;;;;;;74.60;35.37;;;;;;;;;;4402377;32;20234;-55
2021/11/11 01:34:57;;;;;;;64.20;32.57;;;;;;;;;;4402078;32;20318;-55
2021/11/11 01:37:22;;;;;;;58.90;31.57;;;;;;;;;;4401798;32;20228;-55
2021/11/11 01:39:48;;;;;;;52.70;26.37;;;;;;;;;;4402249;32;20280;-54
2021/11/11 01:42:14;;;;;;;42.30;25.33;;;;;;;;;;4401429;32;20324;-54
2021/11/11 01:44:50;;;;;;;47.47;25.80;;;;;;;;;;4401760;32;20603;-54
2021/11/11 01:47:16;;;;;;;47.97;23.27;;;;;;;;;;4401902;32;20644;-54
2021/11/11 01:49:41;;;;;;;43.97;21.77;;;;;;;;;;4401775;32;20421;-55
2021/11/11 01:52:08;;;;;;;36.10;21.40;;;;;;;;;;4401701;32;20334;-54
2021/11/11 01:54:34;;;;;;;36.57;21.27;;;;;;;;;;4401960;32;20210;-55
2021/11/11 01:56:59;;;;;;;36.60;19.63;;;;;;;;;;4401851;32;20685;-54
2021/11/11 01:59:25;;;;;;;35.37;16.70;;;;;;;;;;4402380;32;20311;-55
2021/11/11 02:01:50;;;;;;;32.20;16.20;;;;;;;;;;4401960;32;20263;-54
2021/11/11 02:04:16;;;;;;;32.23;15.93;;;;;;;;;;4401682;32;20355;-55
2021/11/11 02:06:41;;;;;;;31.37;17.10;;;;;;;;;;4401788;32;20271;-55
2021/11/11 02:09:07;;;;;;;22.33;13.60;;;;;;;;;;4401502;32;20527;-54
2021/11/11 02:11:33;;;;;;;26.90;15.80;;;;;;;;;;4400395;32;20315;-55
2021/11/11 02:13:59;;;;;;;31.80;13.87;;;;;;;;;;4401936;32;20597;-55
2021/11/11 02:16:24;;;;;;;22.77;13.43;;;;;;;;;;4401840;32;20245;-54
2021/11/11 02:18:50;;;;;;;26.73;14.13;;;;;;;;;;4402240;32;20288;-55
2021/11/11 02:21:16;;;;;;;23.87;14.23;;;;;;;;;;4400187;32;20721;-55
2021/11/11 02:23:43;;;;;;;23.17;13.83;;;;;;;;;;4401778;32;20286;-55
2021/11/11 02:26:08;;;;;;;23.10;11.60;;;;;;;;;;4387073;32;20427;-55
2021/11/11 02:28:35;;;;;;;20.63;12.13;;;;;;;;;;4386862;32;20307;-54
2021/11/11 02:31:00;;;;;;;20.97;11.57;;;;;;;;;;4386616;32;20289;-54
2021/11/11 02:33:27;;;;;;;26.00;11.73;;;;;;;;;;4397936;32;20316;-55
2021/11/11 02:35:53;;;;;;;20.23;10.17;;;;;;;;;;4389970;32;20664;-54
2021/11/11 02:38:19;;;;;;;20.13;11.10;;;;;;;;;;4401888;32;20205;-55
2021/11/11 02:40:45;;;;;;;24.70;13.10;;;;;;;;;;4401394;32;20300;-54
2021/11/11 02:43:14;;;;;;;25.10;13.80;;;;;;;;;;4401444;32;20578;-55
2021/11/11 02:45:43;;;;;;;19.93;12.80;;;;;;;;;;4401561;32;20224;-55
2021/11/11 02:48:09;;;;;;;22.30;12.90;;;;;;;;;;4401519;32;20221;-54
2021/11/11 02:50:36;;;;;;;24.97;14.40;;;;;;;;;;4404299;32;20198;-54
2021/11/11 02:53:03;;;;;;;28.37;14.07;;;;;;;;;;4404831;32;20197;-55
2021/11/11 02:55:29;;;;;;;22.07;13.57;;;;;;;;;;4404590;32;20201;-55
2021/11/11 02:57:57;;;;;;;28.37;14.30;;;;;;;;;;4404093;32;20365;-55
2021/11/11 03:00:29;;;;;;;28.03;14.23;;;;;;;;;;4404245;32;20260;-54
2021/11/11 03:02:55;;;;;;;28.00;13.90;;;;;;;;;;4402897;32;20747;-55
2021/11/11 03:05:23;;;;;;;22.73;14.03;;;;;;;;;;4402822;32;20288;-54
2021/11/11 03:07:49;;;;;;;21.43;13.67;;;;;;;;;;4404255;32;20225;-55
2021/11/11 03:10:18;;;;;;;27.03;13.57;;;;;;;;;;4404016;32;20277;-57
2021/11/11 03:12:45;;;;;;;25.07;13.13;;;;;;;;;;4404300;32;20234;-54
2021/11/11 03:15:11;;;;;;;20.07;13.87;;;;;;;;;;4404088;32;20209;-55
2021/11/11 03:17:38;;;;;;;21.10;13.23;;;;;;;;;;4404571;32;20320;-55
2021/11/11 03:20:04;;;;;;;19.63;13.20;;;;;;;;;;4404160;32;20233;-55
2021/11/11 03:22:30;;;;;;;25.80;13.47;;;;;;;;;;4404022;32;20252;-54
2021/11/11 03:24:56;;;;;;;22.73;13.00;;;;;;;;;;4403660;32;20610;-55
2021/11/11 03:27:22;;;;;;;28.73;14.93;;;;;;;;;;4403869;32;20264;-54
2021/11/11 03:29:49;;;;;;;28.63;15.97;;;;;;;;;;4403011;32;20909;-54
2021/11/11 03:32:15;;;;;;;21.17;13.57;;;;;;;;;;4402355;32;20237;-55
2021/11/11 03:34:41;;;;;;;26.60;15.63;;;;;;;;;;4403856;32;20284;-55
2021/11/11 03:37:08;;;;;;;32.20;16.13;;;;;;;;;;4402764;32;20242;-56
2021/11/11 03:39:34;;;;;;;30.00;14.87;;;;;;;;;;4402745;32;20575;-54
2021/11/11 03:42:00;;;;;;;25.77;13.67;;;;;;;;;;4403773;32;20274;-54
2021/11/11 03:44:25;;;;;;;31.47;15.70;;;;;;;;;;4392705;32;20315;-55
2021/11/11 03:46:56;;;;;;;34.13;15.87;;;;;;;;;;4389080;32;20221;-54
2021/11/11 03:49:23;;;;;;;38.03;17.73;;;;;;;;;;4388551;32;20500;-55
2021/11/11 03:51:48;;;;;;;28.43;16.83;;;;;;;;;;4388876;32;20721;-55
2021/11/11 03:54:16;;;;;;;34.30;16.90;;;;;;;;;;4388377;32;20297;-55
2021/11/11 03:56:43;;;;;;;38.63;18.97;;;;;;;;;;4388083;32;20528;-55
2021/11/11 03:59:10;;;;;;;40.37;20.47;;;;;;;;;;4388380;32;20371;-56
2021/11/11 04:01:36;;;;;;;331.37;173.60;;;;;;;;;;4401965;32;20272;-55
2021/11/11 04:04:03;;;;;;;148.20;90.80;;;;;;;;;;4403439;32;20677;-55
2021/11/11 04:06:28;;;;;;;92.60;55.03;;;;;;;;;;4403576;32;20291;-54
2021/11/11 04:08:54;;;;;;;46.03;27.40;;;;;;;;;;4403647;32;20309;-54
2021/11/11 04:11:20;;;;;;;30.97;18.40;;;;;;;;;;4403195;32;20300;-54
2021/11/11 04:13:45;;;;;;;33.33;19.73;;;;;;;;;;4403677;32;20288;-55
2021/11/11 04:16:11;;;;;;;38.57;20.27;;;;;;;;;;4402006;32;20818;-54
2021/11/11 04:18:37;;;;;;;34.97;20.80;;;;;;;;;;4403677;32;20285;-57
2021/11/11 04:21:02;;;;;;;30.87;17.53;;;;;;;;;;4403396;32;20230;-54
2021/11/11 04:23:28;;;;;;;28.97;16.00;;;;;;;;;;4403295;32;20329;-55
2021/11/11 04:26:46;;;;;;;33.20;16.60;;;;;;;;;;4390187;32;20276;-54
2021/11/11 04:28:48;;;;;;;26.83;14.67;;;;;;;;;;4386873;32;20330;-56
2021/11/11 04:31:25;;;;;;;31.23;16.23;;;;;;;;;;4402855;32;20328;-55
2021/11/11 04:33:55;;;;;;;28.53;14.83;;;;;;;;;;4403080;32;20233;-55
2021/11/11 04:36:45;;;;;;;29.53;17.17;;;;;;;;;;4403206;32;20294;-55
2021/11/11 05:02:53;;;;;;;58.93;30.53;;;;;;;;;;4402754;32;20332;-55
2021/11/11 05:05:19;;;;;;;47.83;26.13;;;;;;;;;;4402633;32;20221;-54
2021/11/11 05:07:45;;;;;;;51.53;24.23;;;;;;;;;;4402988;32;20614;-55
2021/11/11 05:10:11;;;;;;;43.03;23.67;;;;;;;;;;4402489;32;20273;-55
2021/11/11 05:12:37;;;;;;;36.23;19.87;;;;;;;;;;4402101;32;20253;-55
2021/11/11 05:15:04;;;;;;;30.20;17.63;;;;;;;;;;4402430;32;20785;-56
2021/11/11 05:17:29;;;;;;;31.13;16.40;;;;;;;;;;4402676;32;20343;-55
2021/11/11 05:19:55;;;;;;;30.53;17.53;;;;;;;;;;4401105;32;20380;-56
2021/11/11 05:22:21;;;;;;;35.70;19.17;;;;;;;;;;4401835;32;20281;-54
2021/11/11 05:24:47;;;;;;;34.93;18.93;;;;;;;;;;4401722;32;20759;-55
2021/11/11 05:27:14;;;;;;;43.90;20.07;;;;;;;;;;4401823;32;20287;-54
2021/11/11 05:29:40;;;;;;;45.33;23.57;;;;;;;;;;4402153;32;20263;-55
2021/11/11 05:32:06;;;;;;;37.33;21.77;;;;;;;;;;4401914;32;20224;-54
2021/11/11 05:34:32;;;;;;;36.00;20.27;;;;;;;;;;4402259;32;20763;-55
2021/11/11 05:36:57;;;;;;;43.20;22.87;;;;;;;;;;4402683;32;20324;-54
2021/11/11 05:39:22;;;;;;;58.93;32.87;;;;;;;;;;4402750;32;20307;-55
2021/11/11 05:41:48;;;;;;;36.70;23.43;;;;;;;;;;4402070;32;20422;-54
2021/11/11 05:44:14;;;;;;;49.37;24.30;;;;;;;;;;4400779;32;20357;-54
2021/11/11 05:46:39;;;;;;;45.50;23.13;;;;;;;;;;4402283;32;20280;-55
2021/11/11 05:49:05;;;;;;;44.93;24.93;;;;;;;;;;4402413;32;20289;-55
2021/11/11 05:51:30;;;;;;;42.17;23.70;;;;;;;;;;4402414;32;20249;-54
2021/11/11 05:53:56;;;;;;;51.30;24.57;;;;;;;;;;4401145;32;20330;-54
2021/11/11 05:56:21;;;;;;;42.80;23.33;;;;;;;;;;4401835;32;20388;-54
2021/11/11 05:58:46;;;;;;;38.67;22.50;;;;;;;;;;4402494;32;20280;-55
2021/11/11 06:01:12;;;;;;;46.13;23.90;;;;;;;;;;4402013;32;20295;-55
2021/11/11 06:03:38;;;;;;;47.87;26.47;;;;;;;;;;4402349;32;20322;-54
2021/11/11 06:06:03;;;;;;;65.67;39.43;;;;;;;;;;4402164;32;20384;-55
2021/11/11 06:08:29;;;;;;;66.13;35.80;;;;;;;;;;4401951;32;20300;-56
2021/11/11 06:10:54;;;;;;;59.97;36.27;;;;;;;;;;4401549;32;20674;-55
2021/11/11 06:13:22;;;;;;;53.67;29.57;;;;;;;;;;4401738;32;20606;-57
2021/11/11 06:15:48;;;;;;;43.07;22.67;;;;;;;;;;4401840;32;20307;-54
2021/11/11 06:18:15;;;;;;;31.23;17.67;;;;;;;;;;4401262;32;20296;-55
2021/11/11 06:20:45;;;;;;;50.77;19.50;;;;;;;;;;4401501;32;20221;-55
2021/11/11 06:23:11;;;;;;;30.67;16.93;;;;;;;;;;4401427;32;20209;-54
2021/11/11 06:25:36;;;;;;;26.30;16.83;;;;;;;;;;4402161;32;20288;-56
2021/11/11 06:28:02;;;;;;;33.83;21.60;;;;;;;;;;4404326;32;20276;-55
2021/11/11 06:30:28;;;;;;;29.13;19.33;;;;;;;;;;4403974;32;20319;-55
2021/11/11 06:32:54;;;;;;;23.47;16.20;;;;;;;;;;4403996;32;20699;-56
2021/11/11 06:35:19;;;;;;;32.33;18.10;;;;;;;;;;4404467;32;20342;-56
2021/11/11 06:37:45;;;;;;;32.23;18.03;;;;;;;;;;4404186;32;20229;-54
2021/11/11 06:40:11;;;;;;;29.63;18.20;;;;;;;;;;4401170;32;20533;-56
2021/11/11 06:42:37;;;;;;;32.57;17.33;;;;;;;;;;4388540;32;20294;-55
2021/11/11 06:45:03;;;;;;;33.57;20.07;;;;;;;;;;4388835;32;20297;-55
2021/11/11 06:47:29;;;;;;;30.27;17.70;;;;;;;;;;4388708;32;20221;-55
2021/11/11 06:49:54;;;;;;;36.37;18.63;;;;;;;;;;4389102;32;20324;-54
2021/11/11 06:52:20;;;;;;;33.50;20.17;;;;;;;;;;4404337;32;20265;-55
2021/11/11 06:54:46;;;;;;;26.60;17.17;;;;;;;;;;4404410;32;20276;-54
2021/11/11 06:57:13;;;;;;;33.20;19.60;;;;;;;;;;4404244;32;20225;-54
2021/11/11 06:59:39;;;;;;;37.17;21.17;;;;;;;;;;4404134;32;20218;-54
2021/11/11 07:02:04;;;;;;;41.10;20.40;;;;;;;;;;4403973;32;20237;-55
2021/11/11 07:04:30;;;;;;;36.70;19.90;;;;;;;;;;4403827;32;20353;-55
2021/11/11 07:06:55;;;;;;;37.20;19.33;;;;;;;;;;4404118;32;20319;-54
2021/11/11 07:09:21;;;;;;;38.73;21.30;;;;;;;;;;4403767;32;20729;-56
2021/11/11 07:11:46;;;;;;;41.93;19.17;;;;;;;;;;4403878;32;20259;-55
2021/11/11 07:14:12;;;;;;;37.00;20.27;;;;;;;;;;4404191;32;20292;-55
2021/11/11 07:16:38;;;;;;;36.10;21.27;;;;;;;;;;4403736;32;20355;-55
2021/11/11 07:19:04;;;;;;;43.77;26.13;;;;;;;;;;4408441;32;20300;-56
2021/11/11 07:21:29;;;;;;;42.20;26.93;;;;;;;;;;4407047;32;20692;-55
2021/11/11 07:23:55;;;;;;;44.87;26.43;;;;;;;;;;4398938;32;20312;-55
2021/11/11 07:26:20;;;;;;;40.43;22.87;;;;;;;;;;4402577;32;20269;-55
2021/11/11 07:28:46;;;;;;;47.37;28.80;;;;;;;;;;4402661;32;20331;-57
2021/11/11 07:31:12;;;;;;;54.63;29.93;;;;;;;;;;4403052;32;20712;-55
2021/11/11 07:33:38;;;;;;;49.67;27.77;;;;;;;;;;4402841;32;20363;-55
2021/11/11 07:36:04;;;;;;;58.67;32.87;;;;;;;;;;4400748;32;20559;-55
2021/11/11 07:38:31;;;;;;;54.23;30.33;;;;;;;;;;4401878;32;20690;-54
2021/11/11 07:40:56;;;;;;;57.27;29.57;;;;;;;;;;4402483;32;20436;-55
2021/11/11 07:43:22;;;;;;;58.80;35.13;;;;;;;;;;4401857;32;20391;-55
2021/11/11 07:45:48;;;;;;;34.27;19.23;;;;;;;;;;4403733;32;20660;-55
2021/11/11 07:48:13;;;;;;;34.77;19.20;;;;;;;;;;4403013;32;20290;-56
2021/11/11 07:50:41;;;;;;;34.17;20.20;;;;;;;;;;4404063;32;20268;-54
2021/11/11 07:53:10;;;;;;;45.73;26.70;;;;;;;;;;4403820;32;20194;-54
2021/11/11 07:55:39;;;;;;;54.57;31.03;;;;;;;;;;4402723;32;20229;-55
2021/11/11 07:58:06;;;;;;;43.20;24.40;;;;;;;;;;4403986;32;20539;-55
2021/11/11 08:00:31;;;;;;;41.60;23.90;;;;;;;;;;4403435;32;20677;-56
2021/11/11 08:02:57;;;;;;;41.73;22.20;;;;;;;;;;4403656;32;20354;-55
2021/11/11 08:05:23;;;;;;;35.67;20.47;;;;;;;;;;4403498;32;20319;-56
2021/11/11 08:07:49;;;;;;;34.10;20.27;;;;;;;;;;4401881;32;20237;-55
2021/11/11 08:10:17;;;;;;;35.20;19.13;;;;;;;;;;4389552;32;20383;-56
2021/11/11 08:12:42;;;;;;;33.40;20.60;;;;;;;;;;4403521;32;20336;-55
2021/11/11 08:15:09;;;;;;;42.87;24.57;;;;;;;;;;4402156;32;20317;-56
2021/11/11 08:17:35;;;;;;;33.83;20.57;;;;;;;;;;4395819;32;20229;-56
2021/11/11 08:20:01;;;;;;;38.13;21.57;;;;;;;;;;4403592;32;20703;-54
2021/11/11 08:22:27;;;;;;;34.90;21.03;;;;;;;;;;4402024;32;20272;-55
2021/11/11 08:24:53;;;;;;;35.67;22.70;;;;;;;;;;4401756;32;20697;-55
2021/11/11 08:27:21;;;;;;;36.23;21.53;;;;;;;;;;4402922;32;20249;-55
2021/11/11 08:29:47;;;;;;;30.57;21.10;;;;;;;;;;4403442;32;20205;-55
2021/11/11 08:32:13;;;;;;;34.73;22.33;;;;;;;;;;4403342;32;20289;-55
2021/11/11 08:34:40;;;;;;;36.23;22.90;;;;;;;;;;4402205;32;20288;-55
2021/11/11 08:37:05;;;;;;;39.47;22.40;;;;;;;;;;4403208;32;20230;-55
2021/11/11 08:39:31;;;;;;;49.97;23.20;;;;;;;;;;4403470;32;20402;-57
2021/11/11 08:41:57;;;;;;;35.97;18.93;;;;;;;;;;4402093;32;20300;-55
2021/11/11 08:44:23;;;;;;;43.50;22.60;;;;;;;;;;4402838;32;20986;-56
2021/11/11 08:46:50;;;;;;;29.33;17.53;;;;;;;;;;4402782;32;20221;-55
2021/11/11 08:49:17;;;;;;;34.27;19.30;;;;;;;;;;4402834;32;20522;-56
2021/11/11 08:51:44;;;;;;;32.87;19.90;;;;;;;;;;4403073;32;20221;-55
2021/11/11 08:54:11;;;;;;;33.60;21.23;;;;;;;;;;4401812;32;20288;-56
2021/11/11 08:56:37;;;;;;;40.10;23.80;;;;;;;;;;4402891;32;20233;-56
2021/11/11 08:59:03;;;;;;;37.00;20.70;;;;;;;;;;4401756;32;20327;-55
2021/11/11 09:01:31;;;;;;;33.77;19.23;;;;;;;;;;4402851;32;20237;-55
2021/11/11 09:03:58;;;;;;;36.93;18.80;;;;;;;;;;4403094;32;20224;-55
2021/11/11 09:06:24;;;;;;;39.07;23.77;;;;;;;;;;4402632;32;20290;-56
2021/11/11 09:08:52;;;;;;;36.73;21.60;;;;;;;;;;4401700;32;20379;-56
2021/11/11 09:11:23;;;;;;;31.63;18.17;;;;;;;;;;4402629;32;20229;-56
2021/11/11 09:13:49;;;;;;;36.87;20.27;;;;;;;;;;4401640;32;20657;-55
2021/11/11 09:16:15;;;;;;;31.07;17.17;;;;;;;;;;4402824;32;20233;-57
2021/11/11 09:18:41;;;;;;;35.17;20.30;;;;;;;;;;4402845;32;20272;-55
2021/11/11 09:21:10;;;;;;;36.13;19.90;;;;;;;;;;4402815;32;20278;-56
2021/11/11 09:23:37;;;;;;;35.97;17.13;;;;;;;;;;4402984;32;20404;-56
2021/11/11 09:26:05;;;;;;;28.83;16.97;;;;;;;;;;4402214;32;20251;-55
2021/11/11 09:28:31;;;;;;;31.90;20.17;;;;;;;;;;4402771;32;20231;-55
2021/11/11 09:30:58;;;;;;;29.97;19.20;;;;;;;;;;4401317;32;20271;-55
2021/11/11 09:33:24;;;;;;;27.97;19.33;;;;;;;;;;4399697;32;20628;-55
2021/11/11 09:35:53;;;;;;;38.30;19.93;;;;;;;;;;4402170;32;20280;-56
2021/11/11 09:38:20;;;;;;;41.60;23.53;;;;;;;;;;4400014;32;20315;-55
2021/11/11 09:40:46;;;;;;;26.60;18.40;;;;;;;;;;4396907;32;20274;-56
2021/11/11 09:43:12;;;;;;;125.87;69.17;;;;;;;;;;4398129;32;20332;-55
2021/11/11 09:45:38;;;;;;;66.63;41.30;;;;;;;;;;4388363;32;20284;-56
2021/11/11 09:48:04;;;;;;;26.93;18.37;;;;;;;;;;4386964;32;20684;-55
2021/11/11 09:50:31;;;;;;;23.20;16.00;;;;;;;;;;4386982;32;20315;-56
2021/11/11 09:52:59;;;;;;;29.73;19.13;;;;;;;;;;4384292;32;20365;-55
2021/11/11 10:00:55;;;;;;;33.57;22.63;;;;;;;;;;4401911;32;20288;-55
2021/11/11 10:03:22;;;;;;;33.67;20.23;;;;;;;;;;4400853;32;20332;-56
2021/11/11 10:05:48;;;;;;;35.43;19.90;;;;;;;;;;4401809;32;20397;-54
2021/11/11 10:08:31;;;;;;;80.33;52.37;;;;;;;;;;4401786;32;20646;-54
2021/11/11 10:10:56;;;;;;;31.40;18.87;;;;;;;;;;4401059;32;20409;-55
2021/11/11 10:13:22;;;;;;;33.87;21.67;;;;;;;;;;4399027;32;20999;-56
2021/11/11 10:16:17;;;;;;;27.40;17.53;;;;;;;;;;4393151;32;20764;-56
2021/11/11 10:18:48;;;;;;;26.63;17.70;;;;;;;;;;4383112;32;20248;-55
2021/11/11 10:21:23;;;;;;;30.40;16.63;;;;;;;;;;4397283;32;20314;-55
2021/11/11 10:23:50;;;;;;;59.47;35.07;;;;;;;;;;4400120;32;20512;-56
2021/11/11 10:26:25;;;;;;;32.10;18.73;;;;;;;;;;4396827;32;20248;-55
2021/11/11 10:28:51;;;;;;;18.83;12.37;;;;;;;;;;4402109;32;20235;-55
2021/11/11 10:31:20;;;;;;;37.40;16.70;;;;;;;;;;4401093;32;20304;-55
2021/11/11 10:34:18;;;;;;;20.20;12.67;;;;;;;;;;4400431;32;20210;-56
2021/11/11 10:36:46;;;;;;;20.40;12.83;;;;;;;;;;4375534;32;20773;-55
2021/11/11 10:39:18;;;;;;;20.23;13.67;;;;;;;;;;4385451;32;20319;-56
2021/11/11 10:41:45;;;;;;;30.00;13.57;;;;;;;;;;4385596;32;20257;-55
2021/11/11 10:44:27;;;;;;;23.60;12.33;;;;;;;;;;4385250;32;20226;-54
2021/11/11 10:47:03;;;;;;;57.73;31.57;;;;;;;;;;4384155;32;20237;-55
2021/11/11 10:49:33;;;;;;;37.60;19.40;;;;;;;;;;4386099;32;20221;-55
2021/11/11 10:52:26;;;;;;;21.03;13.03;;;;;;;;;;4385941;32;20320;-55
2021/11/11 10:55:21;;;;;;;29.10;13.77;;;;;;;;;;4385673;32;20286;-56
2021/11/11 10:58:01;;;;;;;33.83;17.20;;;;;;;;;;4381133;32;20268;-55
2021/11/11 11:00:39;;;;;;;28.27;15.37;;;;;;;;;;4384825;32;20349;-56
2021/11/11 11:03:13;;;;;;;24.70;12.90;;;;;;;;;;4394766;32;20675;-55
2021/11/11 11:06:05;;;;;;;24.73;14.63;;;;;;;;;;4401748;32;20205;-55
2021/11/11 11:08:40;;;;;;;27.10;14.43;;;;;;;;;;4413189;32;20225;-55
2021/11/11 11:11:14;;;;;;;24.53;14.47;;;;;;;;;;4403258;32;20266;-55
2021/11/11 11:14:08;;;;;;;21.97;14.47;;;;;;;;;;4402980;32;20256;-56
2021/11/11 11:16:35;;;;;;;53.40;26.93;;;;;;;;;;4403110;32;20316;-56
2021/11/11 11:19:10;;;;;;;30.70;17.03;;;;;;;;;;4404316;32;20237;-56
2021/11/11 11:21:44;;;;;;;32.40;19.47;;;;;;;;;;4404482;32;20229;-55
2021/11/11 11:24:17;;;;;;;23.47;14.87;;;;;;;;;;4404056;32;20560;-55
2021/11/11 11:26:57;;;;;;;30.83;18.40;;;;;;;;;;4404593;32;20346;-54
2021/11/11 11:32:13;;;;;;;26.43;15.80;;;;;;;;;;4403999;32;20229;-56
2021/11/11 11:34:45;;;;;;;27.13;17.33;;;;;;;;;;4402833;32;20279;-56
2021/11/11 11:37:12;;;;;;;25.83;16.83;;;;;;;;;;4403735;32;20398;-56
2021/11/11 11:39:42;;;;;;;23.07;15.20;;;;;;;;;;4404156;32;20304;-56
2021/11/11 11:42:21;;;;;;;47.00;26.57;;;;;;;;;;4403947;32;20324;-55
2021/11/11 11:45:02;;;;;;;42.87;23.33;;;;;;;;;;4404034;32;20241;-55
2021/11/11 11:47:36;;;;;;;29.37;16.37;;;;;;;;;;4404069;32;20261;-56
2021/11/11 11:50:21;;;;;;;21.80;14.97;;;;;;;;;;4402634;32;20281;-56
2021/11/11 11:52:54;;;;;;;22.70;14.33;;;;;;;;;;4403891;32;20244;-56
2021/11/11 11:55:25;;;;;;;24.47;15.13;;;;;;;;;;4403930;32;20273;-55
2021/11/11 12:00:46;;;;;;;25.70;14.73;;;;;;;;;;4403234;32;20591;-56
2021/11/11 12:09:11;;;;;;;26.10;15.17;;;;;;;;;;4402956;32;20225;-55
2021/11/11 12:40:13;;;;;;;31.63;20.50;;;;;;;;;;4387710;32;20241;-55
2021/11/11 12:42:42;;;;;;;38.77;19.03;;;;;;;;;;4390336;32;20397;-55
2021/11/11 12:45:18;;;;;;;42.07;18.33;;;;;;;;;;4402674;32;20296;-55
2021/11/11 12:47:48;;;;;;;32.93;20.57;;;;;;;;;;4402223;32;20247;-55
2021/11/11 12:50:41;;;;;;;32.53;18.00;;;;;;;;;;4402346;32;20263;-56
2021/11/11 12:55:43;;;;;;;34.73;19.97;;;;;;;;;;4398380;32;20304;-55
2021/11/11 12:58:14;;;;;;;34.97;19.70;;;;;;;;;;4401790;32;20300;-54
2021/11/11 13:00:49;;;;;;;33.67;18.00;;;;;;;;;;4402386;32;20308;-56
2021/11/11 13:03:16;;;;;;;27.90;17.10;;;;;;;;;;4400939;32;20217;-57
2021/11/11 13:05:47;;;;;;;33.20;16.90;;;;;;;;;;4402564;32;20217;-56
2021/11/11 13:08:15;;;;;;;32.27;17.13;;;;;;;;;;4401888;32;20248;-55
2021/11/11 13:11:04;;;;;;;33.73;18.37;;;;;;;;;;4413426;32;20241;-56
2021/11/11 13:13:30;;;;;;;30.33;15.93;;;;;;;;;;4401867;32;20650;-55
2021/11/11 13:16:01;;;;;;;34.63;17.03;;;;;;;;;;4402210;32;20401;-55
2021/11/11 13:19:03;;;;;;;34.13;15.43;;;;;;;;;;4402289;32;20515;-56
2021/11/11 13:21:52;;;;;;;32.63;17.03;;;;;;;;;;4385260;32;20378;-55
2021/11/11 13:24:48;;;;;;;22.87;15.30;;;;;;;;;;4391650;32;20347;-55
2021/11/11 15:04:29;;;;;;;37.30;23.27;;;;;;;;;;4386961;32;20284;-55
2021/11/11 16:27:50;;;;;;;120.57;62.50;;;;;;;;;;4386741;32;20256;-55
2021/11/11 16:30:20;;;;;;;110.13;60.23;;;;;;;;;;4387076;32;20315;-55
2021/11/11 16:32:47;;;;;;;129.53;65.77;;;;;;;;;;4388304;32;20229;-55
2021/11/11 16:35:15;;;;;;;126.27;67.27;;;;;;;;;;4388211;32;20260;-54
2021/11/11 16:37:41;;;;;;;117.73;68.37;;;;;;;;;;4387680;32;20609;-54
2021/11/11 16:40:10;;;;;;;152.97;78.60;;;;;;;;;;4395711;32;20678;-55
2021/11/11 16:42:36;;;;;;;118.33;68.10;;;;;;;;;;4403066;32;20299;-54
2021/11/11 16:45:04;;;;;;;117.77;64.20;;;;;;;;;;4402035;32;20348;-56
2021/11/11 16:47:30;;;;;;;123.67;68.10;;;;;;;;;;4403118;32;20217;-55
2021/11/11 16:49:56;;;;;;;117.73;58.80;;;;;;;;;;4403166;32;20275;-56
2021/11/11 16:52:21;;;;;;;85.57;51.10;;;;;;;;;;4401346;32;20265;-55
2021/11/11 16:54:47;;;;;;;89.73;48.00;;;;;;;;;;4403041;32;20289;-55
2021/11/11 16:57:12;;;;;;;86.47;50.03;;;;;;;;;;4402849;32;20258;-54
2021/11/11 16:59:38;;;;;;;82.23;46.70;;;;;;;;;;4403166;32;20339;-54
2021/11/11 17:02:04;;;;;;;89.80;49.30;;;;;;;;;;4401454;32;20795;-56
2021/11/11 17:04:30;;;;;;;82.97;50.77;;;;;;;;;;4402773;32;20233;-54
2021/11/11 17:06:56;;;;;;;93.37;51.40;;;;;;;;;;4402858;32;20255;-55
2021/11/11 17:09:21;;;;;;;121.80;58.07;;;;;;;;;;4402294;32;20624;-55
2021/11/11 17:11:47;;;;;;;122.40;63.50;;;;;;;;;;4402708;32;20225;-55
2021/11/11 17:14:14;;;;;;;100.40;55.70;;;;;;;;;;4401323;32;20805;-54
2021/11/11 17:16:40;;;;;;;102.70;56.93;;;;;;;;;;4402882;32;20229;-54
2021/11/11 17:19:06;;;;;;;95.60;56.63;;;;;;;;;;4401400;32;20300;-55
2021/11/11 17:21:33;;;;;;;117.00;58.70;;;;;;;;;;4402677;32;20259;-55
2021/11/11 17:24:02;;;;;;;106.90;57.83;;;;;;;;;;4402353;32;20609;-54
2021/11/11 17:29:16;;;;;;;99.43;55.10;;;;;;;;;;4402520;32;20589;-55
2021/11/11 17:31:43;;;;;;;89.90;48.20;;;;;;;;;;4402808;32;20237;-56
2021/11/11 17:34:10;;;;;;;86.63;48.23;;;;;;;;;;4402275;32;20350;-54
2021/11/11 17:36:36;;;;;;;97.30;49.93;;;;;;;;;;4402253;32;20278;-54
2021/11/11 17:39:04;;;;;;;86.40;48.03;;;;;;;;;;4400915;32;20311;-55
2021/11/11 17:41:30;;;;;;;85.80;47.93;;;;;;;;;;4402127;32;20283;-55
2021/11/11 17:43:57;;;;;;;84.70;49.40;;;;;;;;;;4402290;32;20272;-55
2021/11/11 17:46:33;;;;;;;102.10;53.93;;;;;;;;;;4401978;32;20673;-54
2021/11/11 17:48:59;;;;;;;108.97;55.17;;;;;;;;;;4387230;32;20321;-54
2021/11/11 17:51:37;;;;;;;102.33;53.07;;;;;;;;;;4386714;32;20675;-54
2021/11/11 17:54:16;;;;;;;104.77;52.40;;;;;;;;;;4387229;32;20202;-55
2021/11/11 17:56:46;;;;;;;109.37;54.97;;;;;;;;;;4387000;32;20738;-55
2021/11/11 17:59:12;;;;;;;97.77;54.23;;;;;;;;;;4386907;32;20278;-55
2021/11/11 18:01:38;;;;;;;89.00;50.03;;;;;;;;;;4386880;32;20709;-54
2021/11/11 18:04:04;;;;;;;110.13;57.37;;;;;;;;;;4388809;32;20244;-55
2021/11/11 18:06:34;;;;;;;110.87;57.27;;;;;;;;;;4402072;32;20516;-55
2021/11/11 18:09:04;;;;;;;116.83;61.43;;;;;;;;;;4401450;32;20348;-56
2021/11/11 18:11:31;;;;;;;129.47;62.93;;;;;;;;;;4399818;32;20237;-54
2021/11/11 18:14:08;;;;;;;119.30;61.73;;;;;;;;;;4401667;32;20217;-54
2021/11/11 18:16:43;;;;;;;111.17;59.40;;;;;;;;;;4400350;32;20771;-54
2021/11/11 18:19:09;;;;;;;114.53;62.57;;;;;;;;;;4402580;32;20605;-55
2021/11/11 18:21:34;;;;;;;113.57;58.37;;;;;;;;;;4404893;32;20359;-54
2021/11/11 18:24:02;;;;;;;137.20;74.30;;;;;;;;;;4400907;32;20281;-55
2021/11/11 18:26:28;;;;;;;122.43;65.90;;;;;;;;;;4389535;32;20288;-52
2021/11/11 18:29:03;;;;;;;132.53;65.60;;;;;;;;;;4389478;32;20287;-53
2021/11/11 18:31:37;;;;;;;129.33;68.23;;;;;;;;;;4390426;32;20300;-54
2021/11/11 18:34:16;;;;;;;131.53;64.07;;;;;;;;;;4404813;32;20378;-54
2021/11/11 18:36:46;;;;;;;115.27;61.43;;;;;;;;;;4404520;32;20283;-54